sensor_id;sensor_type;location;lat;lon;timestamp;temperature;humidity
12386;DHT22;6257;57.634;18.310;2023-10-09T00:02:07;7.90;99.90
12386;DHT22;6257;57.634;18.310;2023-10-09T00:04:35;7.80;99.90
12386;DHT22;6257;57.634;18.310;2023-10-09T00:07:06;7.80;99.90
12386;DHT22;6257;57.634;18.310;2023-10-09T00:09:34;7.80;99.90
12386;DHT22;6257;57.634;18.310;2023-10-09T00:12:14;7.80;99.90
12386;DHT22;6257;57.634;18.310;2023-10-09T00:14:42;7.70;99.90
12386;DHT22;6257;57.634;18.310;2023-10-09T00:17:14;7.70;99.90
12386;DHT22;6257;57.634;18.310;2023-10-09T00:19:44;7.70;99.90
12386;DHT22;6257;57.634;18.310;2023-10-09T00:22:13;7.70;99.90
12386;DHT22;6257;57.634;18.310;2023-10-09T00:24:52;7.70;99.90
12386;DHT22;6257;57.634;18.310;2023-10-09T00:30:09;7.70;99.90
12386;DHT22;6257;57.634;18.310;2023-10-09T00:32:37;7.70;99.90
12386;DHT22;6257;57.634;18.310;2023-10-09T00:35:17;7.70;99.90
12386;DHT22;6257;57.634;18.310;2023-10-09T00:38:05;7.70;99.90
12386;DHT22;6257;57.634;18.310;2023-10-09T00:40:41;7.70;99.90
12386;DHT22;6257;57.634;18.310;2023-10-09T00:43:14;7.60;99.90
12386;DHT22;6257;57.634;18.310;2023-10-09T00:45:43;8.10;99.90
12386;DHT22;6257;57.634;18.310;2023-10-09T00:48:11;7.60;99.90
12386;DHT22;6257;57.634;18.310;2023-10-09T00:50:40;7.60;99.90
12386;DHT22;6257;57.634;18.310;2023-10-09T00:53:17;7.50;99.90
12386;DHT22;6257;57.634;18.310;2023-10-09T00:55:56;7.50;99.90
12386;DHT22;6257;57.634;18.310;2023-10-09T00:58:25;7.60;99.90
12386;DHT22;6257;57.634;18.310;2023-10-09T01:00:56;7.60;99.90
12386;DHT22;6257;57.634;18.310;2023-10-09T01:03:25;7.60;99.90
12386;DHT22;6257;57.634;18.310;2023-10-09T01:05:56;7.60;99.90
12386;DHT22;6257;57.634;18.310;2023-10-09T01:08:24;7.60;99.90
12386;DHT22;6257;57.634;18.310;2023-10-09T01:10:54;7.50;99.90
12386;DHT22;6257;57.634;18.310;2023-10-09T01:13:26;7.50;99.90
12386;DHT22;6257;57.634;18.310;2023-10-09T01:16:05;7.50;99.90
12386;DHT22;6257;57.634;18.310;2023-10-09T01:18:33;7.40;99.90
12386;DHT22;6257;57.634;18.310;2023-10-09T01:21:04;7.40;99.90
12386;DHT22;6257;57.634;18.310;2023-10-09T01:23:33;7.40;99.90
12386;DHT22;6257;57.634;18.310;2023-10-09T01:26:08;7.40;99.90
12386;DHT22;6257;57.634;18.310;2023-10-09T01:28:35;7.50;99.90
12386;DHT22;6257;57.634;18.310;2023-10-09T01:31:02;7.50;99.90
12386;DHT22;6257;57.634;18.310;2023-10-09T01:33:31;7.50;99.90
12386;DHT22;6257;57.634;18.310;2023-10-09T01:36:01;7.40;99.90
12386;DHT22;6257;57.634;18.310;2023-10-09T01:38:30;7.40;99.90
12386;DHT22;6257;57.634;18.310;2023-10-09T01:41:10;7.50;99.90
12386;DHT22;6257;57.634;18.310;2023-10-09T01:43:41;7.50;99.90
12386;DHT22;6257;57.634;18.310;2023-10-09T01:46:10;7.50;99.90
12386;DHT22;6257;57.634;18.310;2023-10-09T01:48:37;7.50;99.90
12386;DHT22;6257;57.634;18.310;2023-10-09T01:51:13;7.50;99.90
12386;DHT22;6257;57.634;18.310;2023-10-09T01:53:43;7.50;99.90
12386;DHT22;6257;57.634;18.310;2023-10-09T01:56:12;7.50;99.90
12386;DHT22;6257;57.634;18.310;2023-10-09T01:58:42;7.50;99.90
12386;DHT22;6257;57.634;18.310;2023-10-09T02:01:13;7.50;99.90
12386;DHT22;6257;57.634;18.310;2023-10-09T02:03:41;7.50;99.90
12386;DHT22;6257;57.634;18.310;2023-10-09T02:06:09;7.50;99.90
12386;DHT22;6257;57.634;18.310;2023-10-09T02:08:53;7.50;99.90
12386;DHT22;6257;57.634;18.310;2023-10-09T02:11:23;7.50;99.90
12386;DHT22;6257;57.634;18.310;2023-10-09T02:14:04;7.50;99.90
12386;DHT22;6257;57.634;18.310;2023-10-09T02:16:45;7.50;99.90
12386;DHT22;6257;57.634;18.310;2023-10-09T02:19:28;7.50;99.90
12386;DHT22;6257;57.634;18.310;2023-10-09T02:21:59;7.50;99.90
12386;DHT22;6257;57.634;18.310;2023-10-09T02:24:28;7.50;99.90
12386;DHT22;6257;57.634;18.310;2023-10-09T02:27:17;7.50;99.90
12386;DHT22;6257;57.634;18.310;2023-10-09T02:30:03;7.50;99.90
12386;DHT22;6257;57.634;18.310;2023-10-09T02:32:42;7.50;99.90
12386;DHT22;6257;57.634;18.310;2023-10-09T02:35:10;7.50;99.90
12386;DHT22;6257;57.634;18.310;2023-10-09T02:37:46;7.50;99.90
12386;DHT22;6257;57.634;18.310;2023-10-09T02:40:14;7.50;99.90
12386;DHT22;6257;57.634;18.310;2023-10-09T02:42:51;7.50;99.90
12386;DHT22;6257;57.634;18.310;2023-10-09T02:45:18;7.50;99.90
12386;DHT22;6257;57.634;18.310;2023-10-09T02:47:45;7.50;99.90
12386;DHT22;6257;57.634;18.310;2023-10-09T02:50:15;7.40;99.90
12386;DHT22;6257;57.634;18.310;2023-10-09T02:52:54;7.40;99.90
12386;DHT22;6257;57.634;18.310;2023-10-09T02:55:26;7.50;99.90
12386;DHT22;6257;57.634;18.310;2023-10-09T02:57:55;7.40;99.90
12386;DHT22;6257;57.634;18.310;2023-10-09T03:00:33;7.40;99.90
12386;DHT22;6257;57.634;18.310;2023-10-09T03:03:03;7.40;99.90
12386;DHT22;6257;57.634;18.310;2023-10-09T03:05:32;7.40;99.90
12386;DHT22;6257;57.634;18.310;2023-10-09T03:07:59;7.40;99.90
12386;DHT22;6257;57.634;18.310;2023-10-09T03:10:27;7.30;99.90
12386;DHT22;6257;57.634;18.310;2023-10-09T03:12:56;7.40;99.90
12386;DHT22;6257;57.634;18.310;2023-10-09T03:15:27;7.30;99.90
12386;DHT22;6257;57.634;18.310;2023-10-09T03:17:56;7.30;99.90
12386;DHT22;6257;57.634;18.310;2023-10-09T03:20:24;7.30;99.90
12386;DHT22;6257;57.634;18.310;2023-10-09T03:22:52;7.30;99.90
12386;DHT22;6257;57.634;18.310;2023-10-09T03:25:19;7.30;99.90
12386;DHT22;6257;57.634;18.310;2023-10-09T03:27:46;7.30;99.90
12386;DHT22;6257;57.634;18.310;2023-10-09T03:30:16;7.30;99.90
12386;DHT22;6257;57.634;18.310;2023-10-09T03:32:48;7.20;99.90
12386;DHT22;6257;57.634;18.310;2023-10-09T03:35:17;7.20;99.90
12386;DHT22;6257;57.634;18.310;2023-10-09T03:37:52;7.20;99.90
12386;DHT22;6257;57.634;18.310;2023-10-09T03:40:23;7.20;99.90
12386;DHT22;6257;57.634;18.310;2023-10-09T03:42:50;7.20;99.90
12386;DHT22;6257;57.634;18.310;2023-10-09T03:45:19;7.20;99.90
12386;DHT22;6257;57.634;18.310;2023-10-09T03:47:53;7.20;99.90
12386;DHT22;6257;57.634;18.310;2023-10-09T03:50:23;7.10;99.90
12386;DHT22;6257;57.634;18.310;2023-10-09T03:52:55;7.10;99.90
12386;DHT22;6257;57.634;18.310;2023-10-09T03:55:23;7.10;99.90
12386;DHT22;6257;57.634;18.310;2023-10-09T03:57:54;7.00;99.90
12386;DHT22;6257;57.634;18.310;2023-10-09T04:00:23;7.10;99.90
12386;DHT22;6257;57.634;18.310;2023-10-09T04:02:55;7.00;99.90
12386;DHT22;6257;57.634;18.310;2023-10-09T04:07:50;7.00;99.90
12386;DHT22;6257;57.634;18.310;2023-10-09T04:13:04;7.00;99.90
12386;DHT22;6257;57.634;18.310;2023-10-09T04:15:35;7.00;99.90
12386;DHT22;6257;57.634;18.310;2023-10-09T04:18:03;7.00;99.90
12386;DHT22;6257;57.634;18.310;2023-10-09T04:20:33;7.00;99.90
12386;DHT22;6257;57.634;18.310;2023-10-09T04:23:13;7.10;99.90
12386;DHT22;6257;57.634;18.310;2023-10-09T04:25:42;7.10;99.90
12386;DHT22;6257;57.634;18.310;2023-10-09T04:28:09;7.10;99.90
12386;DHT22;6257;57.634;18.310;2023-10-09T04:30:46;7.10;99.90
12386;DHT22;6257;57.634;18.310;2023-10-09T04:33:19;7.10;99.90
12386;DHT22;6257;57.634;18.310;2023-10-09T04:36:01;7.20;99.90
12386;DHT22;6257;57.634;18.310;2023-10-09T04:38:48;7.20;99.90
12386;DHT22;6257;57.634;18.310;2023-10-09T04:41:51;7.10;99.90
12386;DHT22;6257;57.634;18.310;2023-10-09T04:44:38;7.20;99.90
12386;DHT22;6257;57.634;18.310;2023-10-09T04:47:06;7.20;99.90
12386;DHT22;6257;57.634;18.310;2023-10-09T04:49:45;7.20;99.90
12386;DHT22;6257;57.634;18.310;2023-10-09T04:52:31;7.10;99.90
12386;DHT22;6257;57.634;18.310;2023-10-09T04:55:16;7.10;99.90
12386;DHT22;6257;57.634;18.310;2023-10-09T04:57:46;7.00;99.90
12386;DHT22;6257;57.634;18.310;2023-10-09T05:00:27;6.90;99.90
12386;DHT22;6257;57.634;18.310;2023-10-09T05:08:47;7.20;99.90
12386;DHT22;6257;57.634;18.310;2023-10-09T05:11:14;7.30;99.90
12386;DHT22;6257;57.634;18.310;2023-10-09T05:13:58;7.40;99.90
12386;DHT22;6257;57.634;18.310;2023-10-09T05:16:37;7.40;99.90
12386;DHT22;6257;57.634;18.310;2023-10-09T05:19:14;7.40;99.90
12386;DHT22;6257;57.634;18.310;2023-10-09T05:21:55;7.40;99.90
12386;DHT22;6257;57.634;18.310;2023-10-09T05:24:24;7.40;99.90
12386;DHT22;6257;57.634;18.310;2023-10-09T05:26:52;7.40;99.90
12386;DHT22;6257;57.634;18.310;2023-10-09T05:29:20;7.40;99.90
12386;DHT22;6257;57.634;18.310;2023-10-09T05:32:00;7.40;99.90
12386;DHT22;6257;57.634;18.310;2023-10-09T05:34:32;7.50;99.90
12386;DHT22;6257;57.634;18.310;2023-10-09T05:37:22;7.50;99.90
12386;DHT22;6257;57.634;18.310;2023-10-09T05:39:51;7.50;99.90
12386;DHT22;6257;57.634;18.310;2023-10-09T05:42:44;7.50;99.90
12386;DHT22;6257;57.634;18.310;2023-10-09T05:45:13;7.50;99.90
12386;DHT22;6257;57.634;18.310;2023-10-09T05:47:57;7.50;99.90
12386;DHT22;6257;57.634;18.310;2023-10-09T05:50:34;7.50;99.90
12386;DHT22;6257;57.634;18.310;2023-10-09T05:53:01;7.50;99.90
12386;DHT22;6257;57.634;18.310;2023-10-09T05:55:33;7.50;99.90
12386;DHT22;6257;57.634;18.310;2023-10-09T05:58:35;7.60;99.90
12386;DHT22;6257;57.634;18.310;2023-10-09T06:01:19;7.50;99.90
12386;DHT22;6257;57.634;18.310;2023-10-09T06:04:03;7.50;99.90
12386;DHT22;6257;57.634;18.310;2023-10-09T06:06:42;7.50;99.90
12386;DHT22;6257;57.634;18.310;2023-10-09T06:09:11;7.50;99.90
12386;DHT22;6257;57.634;18.310;2023-10-09T06:12:15;7.50;99.90
12386;DHT22;6257;57.634;18.310;2023-10-09T06:14:59;7.50;99.90
12386;DHT22;6257;57.634;18.310;2023-10-09T06:17:44;7.50;99.90
12386;DHT22;6257;57.634;18.310;2023-10-09T06:20:16;7.50;99.90
12386;DHT22;6257;57.634;18.310;2023-10-09T06:23:16;7.40;99.90
12386;DHT22;6257;57.634;18.310;2023-10-09T06:25:49;7.40;99.90
12386;DHT22;6257;57.634;18.310;2023-10-09T06:28:18;7.40;99.90
12386;DHT22;6257;57.634;18.310;2023-10-09T06:30:58;7.40;99.90
12386;DHT22;6257;57.634;18.310;2023-10-09T06:33:46;7.40;99.90
12386;DHT22;6257;57.634;18.310;2023-10-09T06:36:33;7.50;99.90
12386;DHT22;6257;57.634;18.310;2023-10-09T06:39:03;7.50;99.90
12386;DHT22;6257;57.634;18.310;2023-10-09T06:41:43;7.50;99.90
12386;DHT22;6257;57.634;18.310;2023-10-09T06:44:31;7.50;99.90
12386;DHT22;6257;57.634;18.310;2023-10-09T06:47:12;7.40;99.90
12386;DHT22;6257;57.634;18.310;2023-10-09T06:49:39;7.30;99.90
12386;DHT22;6257;57.634;18.310;2023-10-09T06:52:25;7.30;99.90
12386;DHT22;6257;57.634;18.310;2023-10-09T06:55:14;7.40;99.90
12386;DHT22;6257;57.634;18.310;2023-10-09T06:57:45;7.50;99.90
12386;DHT22;6257;57.634;18.310;2023-10-09T07:00:15;7.50;99.90
12386;DHT22;6257;57.634;18.310;2023-10-09T07:02:56;7.60;99.90
12386;DHT22;6257;57.634;18.310;2023-10-09T07:05:23;7.70;99.90
12386;DHT22;6257;57.634;18.310;2023-10-09T07:07:58;7.80;99.90
12386;DHT22;6257;57.634;18.310;2023-10-09T07:10:45;7.80;99.90
12386;DHT22;6257;57.634;18.310;2023-10-09T07:13:28;7.70;99.90
12386;DHT22;6257;57.634;18.310;2023-10-09T07:16:02;7.70;99.90
12386;DHT22;6257;57.634;18.310;2023-10-09T07:18:47;7.90;99.90
12386;DHT22;6257;57.634;18.310;2023-10-09T07:21:20;8.00;99.90
12386;DHT22;6257;57.634;18.310;2023-10-09T07:23:54;8.00;99.90
12386;DHT22;6257;57.634;18.310;2023-10-09T07:26:26;8.00;99.90
12386;DHT22;6257;57.634;18.310;2023-10-09T07:29:09;8.20;99.90
12386;DHT22;6257;57.634;18.310;2023-10-09T07:31:48;8.20;99.90
12386;DHT22;6257;57.634;18.310;2023-10-09T07:34:23;8.30;99.90
12386;DHT22;6257;57.634;18.310;2023-10-09T07:37:19;8.40;99.90
12386;DHT22;6257;57.634;18.310;2023-10-09T07:39:49;8.50;99.90
12386;DHT22;6257;57.634;18.310;2023-10-09T07:42:24;8.50;99.90
12386;DHT22;6257;57.634;18.310;2023-10-09T07:45:10;8.70;99.90
12386;DHT22;6257;57.634;18.310;2023-10-09T07:47:59;8.80;99.90
12386;DHT22;6257;57.634;18.310;2023-10-09T07:50:35;9.30;99.90
12386;DHT22;6257;57.634;18.310;2023-10-09T07:53:06;9.80;99.90
12386;DHT22;6257;57.634;18.310;2023-10-09T07:55:44;10.20;99.70
12386;DHT22;6257;57.634;18.310;2023-10-09T07:58:21;10.80;99.90
12386;DHT22;6257;57.634;18.310;2023-10-09T08:00:52;12.20;96.00
12386;DHT22;6257;57.634;18.310;2023-10-09T08:03:41;13.40;95.30
12386;DHT22;6257;57.634;18.310;2023-10-09T08:06:11;14.30;92.10
12386;DHT22;6257;57.634;18.310;2023-10-09T08:08:56;14.60;91.90
12386;DHT22;6257;57.634;18.310;2023-10-09T08:11:37;14.80;92.30
12386;DHT22;6257;57.634;18.310;2023-10-09T08:14:22;15.00;93.10
12386;DHT22;6257;57.634;18.310;2023-10-09T08:17:08;14.40;92.40
12386;DHT22;6257;57.634;18.310;2023-10-09T08:19:39;12.90;94.00
12386;DHT22;6257;57.634;18.310;2023-10-09T08:22:21;11.80;95.50
12386;DHT22;6257;57.634;18.310;2023-10-09T08:25:09;11.00;98.60
12386;DHT22;6257;57.634;18.310;2023-10-09T08:27:52;10.40;99.10
12386;DHT22;6257;57.634;18.310;2023-10-09T08:33:06;9.90;99.60
12386;DHT22;6257;57.634;18.310;2023-10-09T08:35:50;9.60;99.90
12386;DHT22;6257;57.634;18.310;2023-10-09T08:38:20;9.60;99.70
12386;DHT22;6257;57.634;18.310;2023-10-09T08:40:49;9.50;99.90
12386;DHT22;6257;57.634;18.310;2023-10-09T08:43:21;9.40;99.90
12386;DHT22;6257;57.634;18.310;2023-10-09T08:45:51;9.40;99.90
12386;DHT22;6257;57.634;18.310;2023-10-09T08:48:20;9.40;99.90
12386;DHT22;6257;57.634;18.310;2023-10-09T08:50:48;9.40;99.90
12386;DHT22;6257;57.634;18.310;2023-10-09T08:53:18;9.40;99.90
12386;DHT22;6257;57.634;18.310;2023-10-09T08:55:45;9.40;99.90
12386;DHT22;6257;57.634;18.310;2023-10-09T08:58:14;9.40;99.90
12386;DHT22;6257;57.634;18.310;2023-10-09T09:00:44;9.40;99.90
12386;DHT22;6257;57.634;18.310;2023-10-09T09:03:13;9.40;99.90
12386;DHT22;6257;57.634;18.310;2023-10-09T09:05:41;9.40;99.90
12386;DHT22;6257;57.634;18.310;2023-10-09T09:08:21;9.40;99.90
12386;DHT22;6257;57.634;18.310;2023-10-09T09:10:57;9.40;99.90
12386;DHT22;6257;57.634;18.310;2023-10-09T09:13:38;9.40;99.90
12386;DHT22;6257;57.634;18.310;2023-10-09T09:16:13;9.40;99.90
12386;DHT22;6257;57.634;18.310;2023-10-09T09:18:51;9.40;99.90
12386;DHT22;6257;57.634;18.310;2023-10-09T09:21:26;9.40;99.90
12386;DHT22;6257;57.634;18.310;2023-10-09T09:23:54;9.40;99.90
12386;DHT22;6257;57.634;18.310;2023-10-09T09:26:33;9.40;99.90
12386;DHT22;6257;57.634;18.310;2023-10-09T09:29:03;9.40;99.90
12386;DHT22;6257;57.634;18.310;2023-10-09T09:31:34;9.50;99.90
12386;DHT22;6257;57.634;18.310;2023-10-09T09:34:06;9.60;99.90
12386;DHT22;6257;57.634;18.310;2023-10-09T09:36:55;9.60;99.90
12386;DHT22;6257;57.634;18.310;2023-10-09T09:39:25;9.50;99.90
12386;DHT22;6257;57.634;18.310;2023-10-09T09:41:56;9.50;99.90
12386;DHT22;6257;57.634;18.310;2023-10-09T09:44:33;9.50;99.90
12386;DHT22;6257;57.634;18.310;2023-10-09T09:47:09;9.50;99.90
12386;DHT22;6257;57.634;18.310;2023-10-09T09:49:41;9.50;99.90
12386;DHT22;6257;57.634;18.310;2023-10-09T09:52:09;9.60;99.90
12386;DHT22;6257;57.634;18.310;2023-10-09T09:54:37;9.60;99.90
12386;DHT22;6257;57.634;18.310;2023-10-09T09:57:05;9.60;99.90
12386;DHT22;6257;57.634;18.310;2023-10-09T09:59:38;9.70;99.90
12386;DHT22;6257;57.634;18.310;2023-10-09T10:02:20;9.70;99.90
12386;DHT22;6257;57.634;18.310;2023-10-09T10:04:54;9.70;99.90
12386;DHT22;6257;57.634;18.310;2023-10-09T10:07:23;9.70;99.90
12386;DHT22;6257;57.634;18.310;2023-10-09T10:09:51;9.70;99.90
12386;DHT22;6257;57.634;18.310;2023-10-09T10:12:50;9.60;99.90
12386;DHT22;6257;57.634;18.310;2023-10-09T10:15:58;9.60;99.90
12386;DHT22;6257;57.634;18.310;2023-10-09T10:18:30;9.60;99.90
12386;DHT22;6257;57.634;18.310;2023-10-09T10:21:14;9.60;99.90
12386;DHT22;6257;57.634;18.310;2023-10-09T10:23:43;9.60;99.90
12386;DHT22;6257;57.634;18.310;2023-10-09T10:26:22;9.60;99.90
12386;DHT22;6257;57.634;18.310;2023-10-09T10:29:15;9.60;99.90
12386;DHT22;6257;57.634;18.310;2023-10-09T10:31:53;9.60;99.90
12386;DHT22;6257;57.634;18.310;2023-10-09T10:34:22;9.60;99.90
12386;DHT22;6257;57.634;18.310;2023-10-09T10:39:24;9.60;99.90
12386;DHT22;6257;57.634;18.310;2023-10-09T10:42:08;9.60;99.90
12386;DHT22;6257;57.634;18.310;2023-10-09T10:44:40;9.60;99.90
12386;DHT22;6257;57.634;18.310;2023-10-09T10:47:11;9.60;99.90
12386;DHT22;6257;57.634;18.310;2023-10-09T10:49:59;9.60;99.90
12386;DHT22;6257;57.634;18.310;2023-10-09T10:52:38;9.60;99.90
12386;DHT22;6257;57.634;18.310;2023-10-09T10:55:16;9.60;99.90
12386;DHT22;6257;57.634;18.310;2023-10-09T10:58:00;9.60;99.90
12386;DHT22;6257;57.634;18.310;2023-10-09T11:00:36;9.70;99.90
12386;DHT22;6257;57.634;18.310;2023-10-09T11:03:20;9.70;99.90
12386;DHT22;6257;57.634;18.310;2023-10-09T11:05:54;9.60;99.90
12386;DHT22;6257;57.634;18.310;2023-10-09T11:08:25;9.70;99.90
12386;DHT22;6257;57.634;18.310;2023-10-09T11:11:11;9.60;99.90
12386;DHT22;6257;57.634;18.310;2023-10-09T11:13:41;9.60;99.90
12386;DHT22;6257;57.634;18.310;2023-10-09T11:16:19;9.60;99.90
12386;DHT22;6257;57.634;18.310;2023-10-09T11:18:54;9.60;99.90
12386;DHT22;6257;57.634;18.310;2023-10-09T11:21:23;9.60;99.90
12386;DHT22;6257;57.634;18.310;2023-10-09T11:26:47;9.60;99.90
12386;DHT22;6257;57.634;18.310;2023-10-09T11:29:21;9.60;99.90
12386;DHT22;6257;57.634;18.310;2023-10-09T11:32:02;9.60;99.90
12386;DHT22;6257;57.634;18.310;2023-10-09T11:34:31;9.70;99.90
12386;DHT22;6257;57.634;18.310;2023-10-09T11:36:59;9.80;99.90
12386;DHT22;6257;57.634;18.310;2023-10-09T11:39:30;9.70;99.90
12386;DHT22;6257;57.634;18.310;2023-10-09T11:42:09;9.70;99.90
12386;DHT22;6257;57.634;18.310;2023-10-09T11:44:41;9.70;99.90
12386;DHT22;6257;57.634;18.310;2023-10-09T11:47:10;9.70;99.90
12386;DHT22;6257;57.634;18.310;2023-10-09T11:49:51;9.70;99.90
12386;DHT22;6257;57.634;18.310;2023-10-09T11:52:55;9.60;99.90
12386;DHT22;6257;57.634;18.310;2023-10-09T11:55:36;9.50;99.90
12386;DHT22;6257;57.634;18.310;2023-10-09T11:58:03;9.50;99.90
12386;DHT22;6257;57.634;18.310;2023-10-09T12:00:32;9.50;99.90
12386;DHT22;6257;57.634;18.310;2023-10-09T12:03:10;9.50;99.90
12386;DHT22;6257;57.634;18.310;2023-10-09T12:05:38;9.60;99.60
12386;DHT22;6257;57.634;18.310;2023-10-09T12:08:10;9.50;99.90
12386;DHT22;6257;57.634;18.310;2023-10-09T12:10:41;9.50;99.90
12386;DHT22;6257;57.634;18.310;2023-10-09T12:13:08;9.60;99.90
12386;DHT22;6257;57.634;18.310;2023-10-09T12:15:35;9.50;99.90
12386;DHT22;6257;57.634;18.310;2023-10-09T12:18:05;9.60;99.90
12386;DHT22;6257;57.634;18.310;2023-10-09T12:20:35;9.60;99.60
12386;DHT22;6257;57.634;18.310;2023-10-09T12:23:03;9.50;99.90
12386;DHT22;6257;57.634;18.310;2023-10-09T12:25:32;9.60;99.90
12386;DHT22;6257;57.634;18.310;2023-10-09T12:28:03;9.70;99.90
12386;DHT22;6257;57.634;18.310;2023-10-09T12:30:30;9.80;99.90
12386;DHT22;6257;57.634;18.310;2023-10-09T12:33:04;9.70;99.90
12386;DHT22;6257;57.634;18.310;2023-10-09T12:35:36;9.60;99.90
12386;DHT22;6257;57.634;18.310;2023-10-09T12:38:03;9.50;99.90
12386;DHT22;6257;57.634;18.310;2023-10-09T12:40:34;9.60;99.90
12386;DHT22;6257;57.634;18.310;2023-10-09T12:43:03;9.60;99.90
12386;DHT22;6257;57.634;18.310;2023-10-09T12:45:33;9.60;99.90
12386;DHT22;6257;57.634;18.310;2023-10-09T12:48:01;9.60;99.90
12386;DHT22;6257;57.634;18.310;2023-10-09T12:50:34;9.60;99.90
12386;DHT22;6257;57.634;18.310;2023-10-09T12:53:07;9.60;99.90
12386;DHT22;6257;57.634;18.310;2023-10-09T12:55:35;9.70;99.90
12386;DHT22;6257;57.634;18.310;2023-10-09T12:58:07;9.80;99.90
12386;DHT22;6257;57.634;18.310;2023-10-09T13:00:35;9.80;99.90
12386;DHT22;6257;57.634;18.310;2023-10-09T13:03:05;9.70;99.90
12386;DHT22;6257;57.634;18.310;2023-10-09T13:05:46;9.50;99.90
12386;DHT22;6257;57.634;18.310;2023-10-09T13:08:21;9.40;99.90
12386;DHT22;6257;57.634;18.310;2023-10-09T13:10:51;9.40;99.90
12386;DHT22;6257;57.634;18.310;2023-10-09T13:13:29;9.40;99.90
12386;DHT22;6257;57.634;18.310;2023-10-09T13:16:06;9.50;99.90
12386;DHT22;6257;57.634;18.310;2023-10-09T13:18:34;9.50;99.90
12386;DHT22;6257;57.634;18.310;2023-10-09T13:21:03;9.40;99.90
12386;DHT22;6257;57.634;18.310;2023-10-09T13:23:30;9.40;99.90
12386;DHT22;6257;57.634;18.310;2023-10-09T13:26:05;9.40;99.90
12386;DHT22;6257;57.634;18.310;2023-10-09T13:31:12;9.40;99.90
12386;DHT22;6257;57.634;18.310;2023-10-09T13:33:41;9.40;99.90
12386;DHT22;6257;57.634;18.310;2023-10-09T13:36:09;9.40;99.90
12386;DHT22;6257;57.634;18.310;2023-10-09T13:38:43;9.40;99.90
12386;DHT22;6257;57.634;18.310;2023-10-09T13:41:10;9.40;99.90
12386;DHT22;6257;57.634;18.310;2023-10-09T13:43:40;9.40;99.90
12386;DHT22;6257;57.634;18.310;2023-10-09T13:48:39;9.20;99.90
12386;DHT22;6257;57.634;18.310;2023-10-09T13:51:07;9.30;99.90
12386;DHT22;6257;57.634;18.310;2023-10-09T13:53:40;9.30;99.90
12386;DHT22;6257;57.634;18.310;2023-10-09T13:56:11;9.40;99.90
12386;DHT22;6257;57.634;18.310;2023-10-09T13:58:40;9.40;99.90
12386;DHT22;6257;57.634;18.310;2023-10-09T14:01:10;9.40;99.90
12386;DHT22;6257;57.634;18.310;2023-10-09T14:03:36;9.40;99.90
12386;DHT22;6257;57.634;18.310;2023-10-09T14:06:05;9.20;99.90
12386;DHT22;6257;57.634;18.310;2023-10-09T14:08:38;9.20;99.90
12386;DHT22;6257;57.634;18.310;2023-10-09T14:11:07;9.00;99.90
12386;DHT22;6257;57.634;18.310;2023-10-09T14:13:39;9.00;99.90
12386;DHT22;6257;57.634;18.310;2023-10-09T14:16:06;8.90;99.90
12386;DHT22;6257;57.634;18.310;2023-10-09T14:18:47;9.00;99.90
12386;DHT22;6257;57.634;18.310;2023-10-09T14:21:19;9.00;99.90
12386;DHT22;6257;57.634;18.310;2023-10-09T14:23:47;9.00;99.90
12386;DHT22;6257;57.634;18.310;2023-10-09T14:26:14;9.00;99.90
12386;DHT22;6257;57.634;18.310;2023-10-09T14:28:44;9.00;99.90
12386;DHT22;6257;57.634;18.310;2023-10-09T14:31:11;9.10;99.90
12386;DHT22;6257;57.634;18.310;2023-10-09T14:33:40;9.10;99.90
12386;DHT22;6257;57.634;18.310;2023-10-09T14:36:10;9.10;99.90
12386;DHT22;6257;57.634;18.310;2023-10-09T14:38:40;9.10;99.90
12386;DHT22;6257;57.634;18.310;2023-10-09T14:41:08;9.00;99.90
12386;DHT22;6257;57.634;18.310;2023-10-09T14:43:37;9.00;99.90
12386;DHT22;6257;57.634;18.310;2023-10-09T14:46:04;9.10;99.90
12386;DHT22;6257;57.634;18.310;2023-10-09T14:48:37;9.10;99.90
12386;DHT22;6257;57.634;18.310;2023-10-09T14:51:04;9.10;99.90
12386;DHT22;6257;57.634;18.310;2023-10-09T14:53:34;9.10;99.90
12386;DHT22;6257;57.634;18.310;2023-10-09T14:56:01;9.10;99.90
12386;DHT22;6257;57.634;18.310;2023-10-09T14:58:29;9.00;99.90
12386;DHT22;6257;57.634;18.310;2023-10-09T15:01:06;9.00;99.90
12386;DHT22;6257;57.634;18.310;2023-10-09T15:03:35;8.90;99.90
12386;DHT22;6257;57.634;18.310;2023-10-09T15:06:04;8.90;99.90
12386;DHT22;6257;57.634;18.310;2023-10-09T15:08:35;8.80;99.90
12386;DHT22;6257;57.634;18.310;2023-10-09T15:11:02;8.80;99.90
12386;DHT22;6257;57.634;18.310;2023-10-09T15:13:29;8.80;99.90
12386;DHT22;6257;57.634;18.310;2023-10-09T15:15:56;8.70;99.90
12386;DHT22;6257;57.634;18.310;2023-10-09T15:18:24;8.70;99.90
12386;DHT22;6257;57.634;18.310;2023-10-09T15:20:51;8.70;99.90
12386;DHT22;6257;57.634;18.310;2023-10-09T15:23:18;8.60;99.90
12386;DHT22;6257;57.634;18.310;2023-10-09T15:28:18;8.60;99.90
12386;DHT22;6257;57.634;18.310;2023-10-09T15:30:45;8.60;99.90
12386;DHT22;6257;57.634;18.310;2023-10-09T15:33:14;8.40;99.90
12386;DHT22;6257;57.634;18.310;2023-10-09T15:35:42;8.40;99.90
12386;DHT22;6257;57.634;18.310;2023-10-09T15:38:11;8.30;99.90
12386;DHT22;6257;57.634;18.310;2023-10-09T15:40:39;8.30;99.90
12386;DHT22;6257;57.634;18.310;2023-10-09T15:43:10;8.30;99.90
12386;DHT22;6257;57.634;18.310;2023-10-09T15:45:43;8.40;99.90
12386;DHT22;6257;57.634;18.310;2023-10-09T15:48:13;8.30;99.90
12386;DHT22;6257;57.634;18.310;2023-10-09T15:50:44;8.30;99.90
12386;DHT22;6257;57.634;18.310;2023-10-09T15:53:14;8.30;99.90
12386;DHT22;6257;57.634;18.310;2023-10-09T15:55:43;8.10;99.90
12386;DHT22;6257;57.634;18.310;2023-10-09T15:58:12;8.20;99.90
12386;DHT22;6257;57.634;18.310;2023-10-09T16:00:43;8.00;99.90
12386;DHT22;6257;57.634;18.310;2023-10-09T16:03:11;7.80;99.90
12386;DHT22;6257;57.634;18.310;2023-10-09T16:05:39;7.90;99.90
12386;DHT22;6257;57.634;18.310;2023-10-09T16:08:07;7.90;99.90
12386;DHT22;6257;57.634;18.310;2023-10-09T16:10:33;7.90;99.90
12386;DHT22;6257;57.634;18.310;2023-10-09T16:13:01;7.80;99.90
12386;DHT22;6257;57.634;18.310;2023-10-09T16:17:59;7.50;99.90
12386;DHT22;6257;57.634;18.310;2023-10-09T16:20:29;7.30;99.90
12386;DHT22;6257;57.634;18.310;2023-10-09T16:22:57;7.20;99.90
12386;DHT22;6257;57.634;18.310;2023-10-09T16:25:29;7.00;99.90
12386;DHT22;6257;57.634;18.310;2023-10-09T16:28:00;6.90;99.90
12386;DHT22;6257;57.634;18.310;2023-10-09T16:30:28;6.80;99.90
12386;DHT22;6257;57.634;18.310;2023-10-09T16:32:56;6.60;99.90
12386;DHT22;6257;57.634;18.310;2023-10-09T16:35:23;6.50;99.90
12386;DHT22;6257;57.634;18.310;2023-10-09T16:37:50;6.50;99.90
12386;DHT22;6257;57.634;18.310;2023-10-09T16:42:47;6.20;99.90
12386;DHT22;6257;57.634;18.310;2023-10-09T16:45:18;6.20;99.90
12386;DHT22;6257;57.634;18.310;2023-10-09T16:47:46;6.10;99.90
12386;DHT22;6257;57.634;18.310;2023-10-09T16:50:14;6.00;99.90
12386;DHT22;6257;57.634;18.310;2023-10-09T16:52:42;6.00;99.90
12386;DHT22;6257;57.634;18.310;2023-10-09T16:55:10;5.90;99.90
12386;DHT22;6257;57.634;18.310;2023-10-09T16:57:38;5.90;99.90
12386;DHT22;6257;57.634;18.310;2023-10-09T17:00:08;5.80;99.90